sensor_id;sensor_type;location;lat;lon;timestamp;P1;durP1;ratioP1;P2;durP2;ratioP2
789;SDS011;378;48.844;9.156;2023-08-01T00:02:00;6.57;;;3.20;;
789;SDS011;378;48.844;9.156;2023-08-01T00:04:28;6.30;;;3.38;;
789;SDS011;378;48.844;9.156;2023-08-01T00:06:55;7.28;;;3.08;;
789;SDS011;378;48.844;9.156;2023-08-01T00:09:22;7.15;;;3.67;;
789;SDS011;378;48.844;9.156;2023-08-01T00:11:49;6.70;;;3.20;;
789;SDS011;378;48.844;9.156;2023-08-01T00:14:15;8.75;;;3.85;;
789;SDS011;378;48.844;9.156;2023-08-01T00:16:44;7.05;;;3.30;;
789;SDS011;378;48.844;9.156;2023-08-01T00:19:11;6.25;;;3.20;;
789;SDS011;378;48.844;9.156;2023-08-01T00:21:39;7.03;;;3.45;;
789;SDS011;378;48.844;9.156;2023-08-01T00:24:06;6.65;;;3.45;;
789;SDS011;378;48.844;9.156;2023-08-01T00:26:33;12.15;;;3.67;;
789;SDS011;378;48.844;9.156;2023-08-01T00:29:00;8.20;;;3.30;;
789;SDS011;378;48.844;9.156;2023-08-01T00:31:27;6.65;;;3.75;;
789;SDS011;378;48.844;9.156;2023-08-01T00:33:54;6.47;;;3.35;;
789;SDS011;378;48.844;9.156;2023-08-01T00:36:20;8.77;;;3.65;;
789;SDS011;378;48.844;9.156;2023-08-01T00:38:48;6.13;;;3.22;;
789;SDS011;378;48.844;9.156;2023-08-01T00:41:15;6.97;;;3.78;;
789;SDS011;378;48.844;9.156;2023-08-01T00:43:42;7.10;;;3.50;;
789;SDS011;378;48.844;9.156;2023-08-01T00:46:09;9.40;;;3.92;;
789;SDS011;378;48.844;9.156;2023-08-01T00:48:36;6.07;;;3.38;;
789;SDS011;378;48.844;9.156;2023-08-01T00:51:04;6.25;;;3.45;;
789;SDS011;378;48.844;9.156;2023-08-01T00:53:31;8.82;;;3.60;;
789;SDS011;378;48.844;9.156;2023-08-01T00:55:59;8.55;;;3.97;;
789;SDS011;378;48.844;9.156;2023-08-01T00:58:27;7.00;;;3.30;;
789;SDS011;378;48.844;9.156;2023-08-01T01:00:53;6.88;;;3.80;;
789;SDS011;378;48.844;9.156;2023-08-01T01:03:22;8.02;;;3.72;;
789;SDS011;378;48.844;9.156;2023-08-01T01:05:52;7.70;;;3.65;;
789;SDS011;378;48.844;9.156;2023-08-01T01:08:22;8.02;;;3.83;;
789;SDS011;378;48.844;9.156;2023-08-01T01:10:49;7.78;;;3.75;;
789;SDS011;378;48.844;9.156;2023-08-01T01:13:17;7.28;;;3.40;;
789;SDS011;378;48.844;9.156;2023-08-01T01:15:44;6.43;;;3.78;;
789;SDS011;378;48.844;9.156;2023-08-01T01:18:11;9.20;;;4.10;;
789;SDS011;378;48.844;9.156;2023-08-01T01:20:39;6.78;;;3.63;;
789;SDS011;378;48.844;9.156;2023-08-01T01:23:05;6.60;;;3.67;;
789;SDS011;378;48.844;9.156;2023-08-01T01:25:35;5.70;;;3.35;;
789;SDS011;378;48.844;9.156;2023-08-01T01:28:04;9.77;;;4.20;;
789;SDS011;378;48.844;9.156;2023-08-01T01:30:32;8.85;;;3.50;;
789;SDS011;378;48.844;9.156;2023-08-01T01:32:59;11.38;;;4.05;;
789;SDS011;378;48.844;9.156;2023-08-01T01:35:26;8.20;;;4.22;;
789;SDS011;378;48.844;9.156;2023-08-01T01:37:54;8.02;;;3.85;;
789;SDS011;378;48.844;9.156;2023-08-01T01:40:23;10.48;;;4.40;;
789;SDS011;378;48.844;9.156;2023-08-01T01:42:50;7.00;;;3.78;;
789;SDS011;378;48.844;9.156;2023-08-01T01:45:17;9.82;;;4.13;;
789;SDS011;378;48.844;9.156;2023-08-01T01:47:44;11.48;;;4.32;;
789;SDS011;378;48.844;9.156;2023-08-01T01:50:10;9.95;;;4.20;;
789;SDS011;378;48.844;9.156;2023-08-01T01:52:37;11.20;;;4.10;;
789;SDS011;378;48.844;9.156;2023-08-01T01:55:06;9.15;;;3.85;;
789;SDS011;378;48.844;9.156;2023-08-01T01:57:33;10.05;;;3.60;;
789;SDS011;378;48.844;9.156;2023-08-01T02:00:01;8.27;;;3.88;;
789;SDS011;378;48.844;9.156;2023-08-01T02:02:28;8.88;;;4.10;;
789;SDS011;378;48.844;9.156;2023-08-01T02:04:55;6.68;;;3.72;;
789;SDS011;378;48.844;9.156;2023-08-01T02:07:21;7.50;;;4.07;;
789;SDS011;378;48.844;9.156;2023-08-01T02:09:48;11.63;;;3.90;;
789;SDS011;378;48.844;9.156;2023-08-01T02:12:16;9.90;;;4.32;;
789;SDS011;378;48.844;9.156;2023-08-01T02:14:43;7.60;;;4.18;;
789;SDS011;378;48.844;9.156;2023-08-01T02:17:10;7.35;;;4.03;;
789;SDS011;378;48.844;9.156;2023-08-01T02:19:37;11.38;;;4.53;;
789;SDS011;378;48.844;9.156;2023-08-01T02:22:04;9.65;;;4.20;;
789;SDS011;378;48.844;9.156;2023-08-01T02:24:31;6.45;;;3.88;;
789;SDS011;378;48.844;9.156;2023-08-01T02:26:58;9.38;;;4.00;;
789;SDS011;378;48.844;9.156;2023-08-01T02:29:26;6.43;;;3.78;;
789;SDS011;378;48.844;9.156;2023-08-01T02:31:52;9.02;;;4.68;;
789;SDS011;378;48.844;9.156;2023-08-01T02:34:20;8.15;;;3.90;;
789;SDS011;378;48.844;9.156;2023-08-01T02:36:46;7.10;;;3.97;;
789;SDS011;378;48.844;9.156;2023-08-01T02:39:13;9.75;;;4.28;;
789;SDS011;378;48.844;9.156;2023-08-01T02:41:40;8.95;;;3.92;;
789;SDS011;378;48.844;9.156;2023-08-01T02:44:10;7.15;;;3.90;;
789;SDS011;378;48.844;9.156;2023-08-01T02:46:39;7.50;;;4.15;;
789;SDS011;378;48.844;9.156;2023-08-01T02:49:06;6.20;;;3.70;;
789;SDS011;378;48.844;9.156;2023-08-01T02:51:32;8.85;;;4.18;;
789;SDS011;378;48.844;9.156;2023-08-01T02:53:59;10.00;;;4.07;;
789;SDS011;378;48.844;9.156;2023-08-01T02:56:26;9.23;;;3.92;;
789;SDS011;378;48.844;9.156;2023-08-01T02:58:53;7.65;;;4.25;;
789;SDS011;378;48.844;9.156;2023-08-01T03:01:20;9.77;;;4.10;;
789;SDS011;378;48.844;9.156;2023-08-01T03:03:48;7.45;;;4.30;;
789;SDS011;378;48.844;9.156;2023-08-01T03:06:15;8.25;;;4.20;;
789;SDS011;378;48.844;9.156;2023-08-01T03:08:43;12.75;;;4.40;;
789;SDS011;378;48.844;9.156;2023-08-01T03:11:11;8.60;;;4.72;;
789;SDS011;378;48.844;9.156;2023-08-01T03:13:38;7.07;;;4.10;;
789;SDS011;378;48.844;9.156;2023-08-01T03:16:05;9.10;;;4.18;;
789;SDS011;378;48.844;9.156;2023-08-01T03:18:32;8.43;;;4.60;;
789;SDS011;378;48.844;9.156;2023-08-01T03:21:00;6.85;;;4.18;;
789;SDS011;378;48.844;9.156;2023-08-01T03:23:28;6.80;;;4.05;;
789;SDS011;378;48.844;9.156;2023-08-01T03:25:55;8.10;;;4.43;;
789;SDS011;378;48.844;9.156;2023-08-01T03:28:22;9.18;;;5.05;;
789;SDS011;378;48.844;9.156;2023-08-01T03:30:49;10.25;;;5.18;;
789;SDS011;378;48.844;9.156;2023-08-01T03:33:18;8.57;;;4.78;;
789;SDS011;378;48.844;9.156;2023-08-01T03:35:45;9.70;;;4.57;;
789;SDS011;378;48.844;9.156;2023-08-01T03:38:13;9.27;;;4.45;;
789;SDS011;378;48.844;9.156;2023-08-01T03:40:40;8.93;;;5.25;;
789;SDS011;378;48.844;9.156;2023-08-01T03:43:07;8.50;;;4.32;;
789;SDS011;378;48.844;9.156;2023-08-01T03:45:34;10.25;;;5.28;;
789;SDS011;378;48.844;9.156;2023-08-01T03:48:01;7.93;;;4.60;;
789;SDS011;378;48.844;9.156;2023-08-01T03:50:28;11.27;;;4.28;;
789;SDS011;378;48.844;9.156;2023-08-01T03:52:55;12.68;;;5.25;;
789;SDS011;378;48.844;9.156;2023-08-01T03:55:23;8.93;;;4.78;;
789;SDS011;378;48.844;9.156;2023-08-01T03:57:50;10.35;;;3.92;;
789;SDS011;378;48.844;9.156;2023-08-01T04:00:16;8.20;;;4.45;;
789;SDS011;378;48.844;9.156;2023-08-01T04:02:44;9.23;;;4.10;;
789;SDS011;378;48.844;9.156;2023-08-01T04:05:11;7.50;;;3.53;;
789;SDS011;378;48.844;9.156;2023-08-01T04:07:38;14.45;;;3.85;;
789;SDS011;378;48.844;9.156;2023-08-01T04:10:05;7.15;;;3.70;;
789;SDS011;378;48.844;9.156;2023-08-01T04:12:34;10.45;;;4.05;;
789;SDS011;378;48.844;9.156;2023-08-01T04:15:00;6.53;;;3.30;;
789;SDS011;378;48.844;9.156;2023-08-01T04:17:27;8.52;;;3.50;;
789;SDS011;378;48.844;9.156;2023-08-01T04:19:54;14.05;;;3.85;;
789;SDS011;378;48.844;9.156;2023-08-01T04:22:21;9.88;;;3.42;;
789;SDS011;378;48.844;9.156;2023-08-01T04:24:48;12.57;;;4.18;;
789;SDS011;378;48.844;9.156;2023-08-01T04:27:15;7.20;;;3.20;;
789;SDS011;378;48.844;9.156;2023-08-01T04:29:43;10.35;;;3.95;;
789;SDS011;378;48.844;9.156;2023-08-01T04:32:10;9.10;;;3.90;;
789;SDS011;378;48.844;9.156;2023-08-01T04:34:39;7.75;;;3.55;;
789;SDS011;378;48.844;9.156;2023-08-01T04:37:06;7.28;;;3.55;;
789;SDS011;378;48.844;9.156;2023-08-01T04:39:33;9.95;;;3.13;;
789;SDS011;378;48.844;9.156;2023-08-01T04:42:00;11.55;;;3.45;;
789;SDS011;378;48.844;9.156;2023-08-01T04:44:27;7.70;;;3.58;;
789;SDS011;378;48.844;9.156;2023-08-01T04:46:56;5.68;;;2.75;;
789;SDS011;378;48.844;9.156;2023-08-01T04:49:22;7.78;;;3.20;;
789;SDS011;378;48.844;9.156;2023-08-01T04:51:50;9.50;;;3.58;;
789;SDS011;378;48.844;9.156;2023-08-01T04:54:17;9.02;;;3.50;;
789;SDS011;378;48.844;9.156;2023-08-01T04:56:44;6.43;;;3.20;;
789;SDS011;378;48.844;9.156;2023-08-01T04:59:11;9.27;;;2.95;;
789;SDS011;378;48.844;9.156;2023-08-01T05:01:37;5.07;;;2.88;;
789;SDS011;378;48.844;9.156;2023-08-01T05:04:05;6.13;;;2.72;;
789;SDS011;378;48.844;9.156;2023-08-01T05:06:32;7.82;;;2.80;;
789;SDS011;378;48.844;9.156;2023-08-01T05:08:59;7.55;;;3.28;;
789;SDS011;378;48.844;9.156;2023-08-01T05:11:26;6.50;;;3.53;;
789;SDS011;378;48.844;9.156;2023-08-01T05:13:53;6.07;;;2.47;;
789;SDS011;378;48.844;9.156;2023-08-01T05:16:20;4.65;;;2.80;;
789;SDS011;378;48.844;9.156;2023-08-01T05:18:47;6.30;;;3.00;;
789;SDS011;378;48.844;9.156;2023-08-01T05:21:15;5.75;;;2.45;;
789;SDS011;378;48.844;9.156;2023-08-01T05:23:42;5.88;;;2.63;;
789;SDS011;378;48.844;9.156;2023-08-01T05:26:09;6.65;;;2.70;;
789;SDS011;378;48.844;9.156;2023-08-01T05:28:36;7.10;;;2.88;;
789;SDS011;378;48.844;9.156;2023-08-01T05:31:03;6.07;;;3.10;;
789;SDS011;378;48.844;9.156;2023-08-01T05:33:30;6.60;;;2.72;;
789;SDS011;378;48.844;9.156;2023-08-01T05:35:56;5.63;;;2.90;;
789;SDS011;378;48.844;9.156;2023-08-01T05:38:25;5.65;;;2.63;;
789;SDS011;378;48.844;9.156;2023-08-01T05:40:51;5.80;;;2.50;;
789;SDS011;378;48.844;9.156;2023-08-01T05:43:18;6.60;;;2.55;;
789;SDS011;378;48.844;9.156;2023-08-01T05:45:45;7.63;;;3.08;;
789;SDS011;378;48.844;9.156;2023-08-01T05:48:12;6.88;;;2.88;;
789;SDS011;378;48.844;9.156;2023-08-01T05:50:39;5.25;;;2.47;;
789;SDS011;378;48.844;9.156;2023-08-01T05:53:06;6.85;;;2.67;;
789;SDS011;378;48.844;9.156;2023-08-01T05:55:34;7.70;;;3.00;;
789;SDS011;378;48.844;9.156;2023-08-01T05:58:01;6.57;;;2.55;;
789;SDS011;378;48.844;9.156;2023-08-01T06:00:28;6.90;;;3.00;;
789;SDS011;378;48.844;9.156;2023-08-01T06:02:55;7.63;;;3.17;;
789;SDS011;378;48.844;9.156;2023-08-01T06:05:22;4.35;;;2.60;;
789;SDS011;378;48.844;9.156;2023-08-01T06:07:49;8.68;;;3.20;;
789;SDS011;378;48.844;9.156;2023-08-01T06:10:15;6.75;;;3.35;;
789;SDS011;378;48.844;9.156;2023-08-01T06:12:44;8.52;;;3.35;;
789;SDS011;378;48.844;9.156;2023-08-01T06:15:11;6.68;;;2.88;;
789;SDS011;378;48.844;9.156;2023-08-01T06:17:40;9.85;;;4.03;;
789;SDS011;378;48.844;9.156;2023-08-01T06:23:04;8.32;;;3.92;;
789;SDS011;378;48.844;9.156;2023-08-01T06:45:17;12.77;;;4.63;;
789;SDS011;378;48.844;9.156;2023-08-01T06:47:44;7.85;;;4.18;;
789;SDS011;378;48.844;9.156;2023-08-01T06:50:10;11.68;;;4.53;;
789;SDS011;378;48.844;9.156;2023-08-01T06:52:37;9.70;;;4.65;;
789;SDS011;378;48.844;9.156;2023-08-01T06:55:04;10.18;;;4.75;;
789;SDS011;378;48.844;9.156;2023-08-01T06:57:31;12.35;;;5.00;;
789;SDS011;378;48.844;9.156;2023-08-01T06:59:58;9.63;;;4.53;;
789;SDS011;378;48.844;9.156;2023-08-01T07:02:26;14.02;;;5.20;;
789;SDS011;378;48.844;9.156;2023-08-01T07:04:53;11.38;;;5.10;;
789;SDS011;378;48.844;9.156;2023-08-01T07:07:20;11.95;;;5.20;;
789;SDS011;378;48.844;9.156;2023-08-01T07:09:47;11.63;;;5.35;;
789;SDS011;378;48.844;9.156;2023-08-01T07:12:14;10.68;;;4.90;;
789;SDS011;378;48.844;9.156;2023-08-01T07:14:41;13.88;;;5.72;;
789;SDS011;378;48.844;9.156;2023-08-01T07:17:07;13.38;;;5.63;;
789;SDS011;378;48.844;9.156;2023-08-01T07:19:36;11.80;;;5.85;;
789;SDS011;378;48.844;9.156;2023-08-01T07:22:02;14.90;;;6.05;;
789;SDS011;378;48.844;9.156;2023-08-01T07:24:29;13.48;;;6.05;;
789;SDS011;378;48.844;9.156;2023-08-01T07:26:56;14.40;;;6.18;;
789;SDS011;378;48.844;9.156;2023-08-01T07:29:23;13.02;;;7.10;;
789;SDS011;378;48.844;9.156;2023-08-01T07:31:50;18.17;;;6.50;;
789;SDS011;378;48.844;9.156;2023-08-01T07:34:16;16.15;;;6.28;;
789;SDS011;378;48.844;9.156;2023-08-01T07:36:45;17.25;;;6.53;;
789;SDS011;378;48.844;9.156;2023-08-01T07:39:13;14.95;;;5.72;;
789;SDS011;378;48.844;9.156;2023-08-01T07:41:40;17.08;;;5.70;;
789;SDS011;378;48.844;9.156;2023-08-01T07:44:07;13.70;;;5.55;;
789;SDS011;378;48.844;9.156;2023-08-01T07:46:34;13.93;;;6.18;;
789;SDS011;378;48.844;9.156;2023-08-01T07:49:00;14.70;;;5.57;;
789;SDS011;378;48.844;9.156;2023-08-01T07:51:27;13.77;;;5.65;;
789;SDS011;378;48.844;9.156;2023-08-01T07:53:56;11.98;;;5.75;;
789;SDS011;378;48.844;9.156;2023-08-01T07:56:23;11.82;;;5.10;;
789;SDS011;378;48.844;9.156;2023-08-01T07:58:50;12.48;;;5.22;;
789;SDS011;378;48.844;9.156;2023-08-01T08:01:17;10.02;;;4.35;;
789;SDS011;378;48.844;9.156;2023-08-01T08:03:44;10.95;;;4.32;;
789;SDS011;378;48.844;9.156;2023-08-01T08:06:10;14.23;;;4.32;;
789;SDS011;378;48.844;9.156;2023-08-01T08:08:37;11.95;;;4.28;;
789;SDS011;378;48.844;9.156;2023-08-01T08:11:06;7.07;;;3.70;;
789;SDS011;378;48.844;9.156;2023-08-01T08:13:32;8.45;;;3.67;;
789;SDS011;378;48.844;9.156;2023-08-01T08:15:59;6.88;;;3.70;;
789;SDS011;378;48.844;9.156;2023-08-01T08:18:26;5.25;;;3.30;;
789;SDS011;378;48.844;9.156;2023-08-01T08:20:53;7.05;;;3.30;;
789;SDS011;378;48.844;9.156;2023-08-01T08:23:20;8.50;;;3.38;;
789;SDS011;378;48.844;9.156;2023-08-01T08:25:46;6.10;;;3.25;;
789;SDS011;378;48.844;9.156;2023-08-01T08:28:26;8.00;;;3.83;;
789;SDS011;378;48.844;9.156;2023-08-01T08:30:54;7.15;;;3.60;;
789;SDS011;378;48.844;9.156;2023-08-01T08:33:21;7.82;;;2.88;;
789;SDS011;378;48.844;9.156;2023-08-01T08:35:48;6.55;;;2.85;;
789;SDS011;378;48.844;9.156;2023-08-01T08:38:16;4.45;;;2.70;;
789;SDS011;378;48.844;9.156;2023-08-01T08:40:51;6.28;;;3.22;;
789;SDS011;378;48.844;9.156;2023-08-01T08:43:25;6.75;;;3.05;;
789;SDS011;378;48.844;9.156;2023-08-01T08:45:53;6.93;;;2.88;;
789;SDS011;378;48.844;9.156;2023-08-01T08:48:23;8.55;;;3.15;;
789;SDS011;378;48.844;9.156;2023-08-01T08:50:52;5.93;;;2.72;;
789;SDS011;378;48.844;9.156;2023-08-01T08:53:20;7.95;;;2.85;;
789;SDS011;378;48.844;9.156;2023-08-01T08:55:47;6.25;;;2.63;;
789;SDS011;378;48.844;9.156;2023-08-01T08:58:14;5.85;;;2.95;;
789;SDS011;378;48.844;9.156;2023-08-01T09:00:44;7.40;;;2.88;;
789;SDS011;378;48.844;9.156;2023-08-01T09:03:11;6.60;;;2.83;;
789;SDS011;378;48.844;9.156;2023-08-01T09:05:39;5.40;;;2.78;;
789;SDS011;378;48.844;9.156;2023-08-01T09:08:21;8.43;;;3.00;;
789;SDS011;378;48.844;9.156;2023-08-01T09:10:49;10.45;;;2.78;;
789;SDS011;378;48.844;9.156;2023-08-01T09:13:16;4.97;;;2.50;;
789;SDS011;378;48.844;9.156;2023-08-01T09:15:45;5.15;;;2.33;;
789;SDS011;378;48.844;9.156;2023-08-01T09:18:13;4.80;;;2.22;;
789;SDS011;378;48.844;9.156;2023-08-01T09:20:41;4.63;;;2.22;;
789;SDS011;378;48.844;9.156;2023-08-01T09:23:09;3.20;;;2.20;;
789;SDS011;378;48.844;9.156;2023-08-01T09:25:37;4.85;;;2.28;;
789;SDS011;378;48.844;9.156;2023-08-01T09:28:14;2.88;;;2.05;;
789;SDS011;378;48.844;9.156;2023-08-01T09:30:47;4.45;;;2.00;;
789;SDS011;378;48.844;9.156;2023-08-01T09:33:14;3.28;;;2.00;;
789;SDS011;378;48.844;9.156;2023-08-01T09:35:44;6.78;;;1.88;;
789;SDS011;378;48.844;9.156;2023-08-01T09:38:12;3.15;;;1.70;;
789;SDS011;378;48.844;9.156;2023-08-01T09:40:40;5.13;;;2.15;;
789;SDS011;378;48.844;9.156;2023-08-01T09:43:07;5.70;;;1.70;;
789;SDS011;378;48.844;9.156;2023-08-01T09:45:34;5.25;;;1.80;;
789;SDS011;378;48.844;9.156;2023-08-01T09:48:03;3.10;;;1.65;;
789;SDS011;378;48.844;9.156;2023-08-01T09:50:30;4.07;;;1.90;;
789;SDS011;378;48.844;9.156;2023-08-01T09:53:06;4.28;;;1.60;;
789;SDS011;378;48.844;9.156;2023-08-01T09:55:34;2.60;;;1.40;;
789;SDS011;378;48.844;9.156;2023-08-01T09:58:01;3.67;;;1.48;;
789;SDS011;378;48.844;9.156;2023-08-01T10:00:29;4.05;;;1.40;;
789;SDS011;378;48.844;9.156;2023-08-01T10:02:57;1.85;;;1.30;;
789;SDS011;378;48.844;9.156;2023-08-01T10:05:27;3.13;;;0.90;;
789;SDS011;378;48.844;9.156;2023-08-01T10:07:57;4.20;;;1.05;;
789;SDS011;378;48.844;9.156;2023-08-01T10:10:26;3.05;;;0.90;;
789;SDS011;378;48.844;9.156;2023-08-01T10:12:53;1.98;;;1.00;;
789;SDS011;378;48.844;9.156;2023-08-01T10:15:22;2.58;;;0.90;;
789;SDS011;378;48.844;9.156;2023-08-01T10:17:50;3.00;;;0.80;;
789;SDS011;378;48.844;9.156;2023-08-01T10:20:16;2.38;;;0.90;;
789;SDS011;378;48.844;9.156;2023-08-01T10:22:47;2.35;;;1.00;;
789;SDS011;378;48.844;9.156;2023-08-01T10:25:15;2.28;;;1.08;;
789;SDS011;378;48.844;9.156;2023-08-01T10:27:43;1.98;;;1.05;;
789;SDS011;378;48.844;9.156;2023-08-01T10:30:10;2.78;;;1.17;;
789;SDS011;378;48.844;9.156;2023-08-01T10:32:37;2.55;;;0.90;;
789;SDS011;378;48.844;9.156;2023-08-01T10:35:06;3.67;;;0.80;;
789;SDS011;378;48.844;9.156;2023-08-01T10:37:39;2.22;;;0.80;;
789;SDS011;378;48.844;9.156;2023-08-01T10:40:08;1.65;;;0.85;;
789;SDS011;378;48.844;9.156;2023-08-01T10:42:39;0.98;;;0.70;;
789;SDS011;378;48.844;9.156;2023-08-01T10:45:06;0.88;;;0.77;;
789;SDS011;378;48.844;9.156;2023-08-01T10:47:34;4.45;;;0.68;;
789;SDS011;378;48.844;9.156;2023-08-01T10:50:01;1.67;;;0.77;;
789;SDS011;378;48.844;9.156;2023-08-01T10:52:39;0.73;;;0.60;;
789;SDS011;378;48.844;9.156;2023-08-01T10:55:08;1.58;;;0.73;;
789;SDS011;378;48.844;9.156;2023-08-01T10:57:36;0.70;;;0.70;;
789;SDS011;378;48.844;9.156;2023-08-01T11:00:05;1.17;;;0.85;;
789;SDS011;378;48.844;9.156;2023-08-01T11:02:34;1.40;;;0.90;;
789;SDS011;378;48.844;9.156;2023-08-01T11:05:02;1.77;;;0.90;;
789;SDS011;378;48.844;9.156;2023-08-01T11:07:30;2.00;;;1.05;;
789;SDS011;378;48.844;9.156;2023-08-01T11:10:04;4.35;;;0.98;;
789;SDS011;378;48.844;9.156;2023-08-01T11:12:34;1.00;;;0.80;;
789;SDS011;378;48.844;9.156;2023-08-01T11:15:03;1.45;;;0.80;;
789;SDS011;378;48.844;9.156;2023-08-01T11:17:33;0.90;;;0.90;;
789;SDS011;378;48.844;9.156;2023-08-01T11:20:01;2.40;;;0.80;;
789;SDS011;378;48.844;9.156;2023-08-01T11:22:29;1.80;;;0.90;;
789;SDS011;378;48.844;9.156;2023-08-01T11:24:56;1.30;;;0.80;;
789;SDS011;378;48.844;9.156;2023-08-01T11:27:23;1.00;;;0.90;;
789;SDS011;378;48.844;9.156;2023-08-01T11:29:52;1.67;;;1.00;;
789;SDS011;378;48.844;9.156;2023-08-01T11:32:19;2.00;;;1.00;;
789;SDS011;378;48.844;9.156;2023-08-01T11:34:46;4.68;;;1.20;;
789;SDS011;378;48.844;9.156;2023-08-01T11:37:14;8.32;;;1.10;;
789;SDS011;378;48.844;9.156;2023-08-01T11:39:42;0.93;;;0.80;;
789;SDS011;378;48.844;9.156;2023-08-01T11:42:13;1.63;;;1.20;;
789;SDS011;378;48.844;9.156;2023-08-01T11:44:41;3.40;;;1.02;;
789;SDS011;378;48.844;9.156;2023-08-01T11:47:11;1.30;;;0.90;;
789;SDS011;378;48.844;9.156;2023-08-01T11:49:39;1.27;;;0.95;;
789;SDS011;378;48.844;9.156;2023-08-01T11:52:21;2.10;;;1.00;;
789;SDS011;378;48.844;9.156;2023-08-01T11:54:48;2.47;;;1.00;;
789;SDS011;378;48.844;9.156;2023-08-01T11:57:15;3.58;;;1.23;;
789;SDS011;378;48.844;9.156;2023-08-01T11:59:46;3.30;;;1.00;;
789;SDS011;378;48.844;9.156;2023-08-01T12:02:21;1.63;;;1.30;;
789;SDS011;378;48.844;9.156;2023-08-01T12:04:48;2.58;;;0.85;;
789;SDS011;378;48.844;9.156;2023-08-01T12:07:15;3.08;;;1.02;;
789;SDS011;378;48.844;9.156;2023-08-01T12:09:42;2.53;;;1.13;;
789;SDS011;378;48.844;9.156;2023-08-01T12:12:09;3.65;;;1.02;;
789;SDS011;378;48.844;9.156;2023-08-01T12:14:39;1.50;;;0.90;;
789;SDS011;378;48.844;9.156;2023-08-01T12:17:06;2.55;;;1.25;;
789;SDS011;378;48.844;9.156;2023-08-01T12:19:34;2.05;;;0.93;;
789;SDS011;378;48.844;9.156;2023-08-01T12:22:01;1.10;;;1.00;;
789;SDS011;378;48.844;9.156;2023-08-01T12:24:28;2.40;;;0.90;;
789;SDS011;378;48.844;9.156;2023-08-01T12:26:55;2.38;;;1.00;;
789;SDS011;378;48.844;9.156;2023-08-01T12:29:22;2.88;;;1.30;;
789;SDS011;378;48.844;9.156;2023-08-01T12:31:48;4.70;;;1.05;;
789;SDS011;378;48.844;9.156;2023-08-01T12:34:15;2.17;;;1.05;;
789;SDS011;378;48.844;9.156;2023-08-01T12:36:43;1.10;;;0.90;;
789;SDS011;378;48.844;9.156;2023-08-01T12:39:10;2.28;;;1.00;;
789;SDS011;378;48.844;9.156;2023-08-01T12:41:37;2.58;;;1.02;;
789;SDS011;378;48.844;9.156;2023-08-01T12:44:04;3.45;;;0.90;;
789;SDS011;378;48.844;9.156;2023-08-01T12:46:31;1.75;;;0.90;;
789;SDS011;378;48.844;9.156;2023-08-01T12:48:58;2.03;;;1.00;;
789;SDS011;378;48.844;9.156;2023-08-01T12:51:25;2.10;;;1.30;;
789;SDS011;378;48.844;9.156;2023-08-01T12:53:53;3.55;;;1.05;;
789;SDS011;378;48.844;9.156;2023-08-01T12:56:20;1.13;;;1.00;;
789;SDS011;378;48.844;9.156;2023-08-01T12:58:47;2.38;;;1.00;;
789;SDS011;378;48.844;9.156;2023-08-01T13:01:13;2.33;;;1.10;;
789;SDS011;378;48.844;9.156;2023-08-01T13:03:40;2.25;;;0.90;;
789;SDS011;378;48.844;9.156;2023-08-01T13:06:10;2.17;;;1.20;;
789;SDS011;378;48.844;9.156;2023-08-01T13:08:37;1.10;;;0.98;;
789;SDS011;378;48.844;9.156;2023-08-01T13:11:10;3.35;;;1.00;;
789;SDS011;378;48.844;9.156;2023-08-01T13:13:39;2.17;;;1.10;;
789;SDS011;378;48.844;9.156;2023-08-01T13:16:07;2.05;;;0.98;;
789;SDS011;378;48.844;9.156;2023-08-01T13:18:34;2.35;;;1.10;;
789;SDS011;378;48.844;9.156;2023-08-01T13:21:01;2.50;;;1.23;;
789;SDS011;378;48.844;9.156;2023-08-01T13:23:28;2.53;;;1.08;;
789;SDS011;378;48.844;9.156;2023-08-01T13:25:55;2.65;;;1.13;;
789;SDS011;378;48.844;9.156;2023-08-01T13:28:25;2.55;;;1.08;;
789;SDS011;378;48.844;9.156;2023-08-01T13:30:51;1.77;;;1.05;;
789;SDS011;378;48.844;9.156;2023-08-01T13:33:18;1.73;;;0.93;;
789;SDS011;378;48.844;9.156;2023-08-01T13:35:45;3.05;;;1.20;;
789;SDS011;378;48.844;9.156;2023-08-01T13:38:12;3.33;;;1.10;;
789;SDS011;378;48.844;9.156;2023-08-01T13:40:39;2.38;;;1.10;;
789;SDS011;378;48.844;9.156;2023-08-01T13:43:05;2.15;;;1.00;;
789;SDS011;378;48.844;9.156;2023-08-01T13:45:34;2.35;;;1.17;;
789;SDS011;378;48.844;9.156;2023-08-01T13:48:01;3.15;;;1.30;;
789;SDS011;378;48.844;9.156;2023-08-01T13:50:28;3.53;;;1.30;;
789;SDS011;378;48.844;9.156;2023-08-01T13:52:56;2.15;;;1.10;;
789;SDS011;378;48.844;9.156;2023-08-01T13:55:23;2.08;;;1.10;;
789;SDS011;378;48.844;9.156;2023-08-01T13:57:50;3.28;;;1.10;;
789;SDS011;378;48.844;9.156;2023-08-01T14:00:17;2.47;;;1.00;;
789;SDS011;378;48.844;9.156;2023-08-01T14:02:45;3.80;;;1.10;;
789;SDS011;378;48.844;9.156;2023-08-01T14:05:15;3.97;;;1.40;;
789;SDS011;378;48.844;9.156;2023-08-01T14:07:41;3.97;;;0.85;;
789;SDS011;378;48.844;9.156;2023-08-01T14:10:08;2.65;;;1.15;;
789;SDS011;378;48.844;9.156;2023-08-01T14:12:36;4.97;;;0.90;;
789;SDS011;378;48.844;9.156;2023-08-01T14:15:03;1.58;;;1.02;;
789;SDS011;378;48.844;9.156;2023-08-01T14:17:30;3.22;;;1.02;;
789;SDS011;378;48.844;9.156;2023-08-01T14:19:59;2.60;;;1.05;;
789;SDS011;378;48.844;9.156;2023-08-01T14:22:25;2.42;;;1.15;;
789;SDS011;378;48.844;9.156;2023-08-01T14:24:52;2.03;;;1.15;;
789;SDS011;378;48.844;9.156;2023-08-01T14:27:19;5.03;;;1.13;;
789;SDS011;378;48.844;9.156;2023-08-01T14:29:46;2.08;;;1.23;;
789;SDS011;378;48.844;9.156;2023-08-01T14:32:12;2.60;;;1.13;;
789;SDS011;378;48.844;9.156;2023-08-01T14:34:40;2.28;;;1.10;;
789;SDS011;378;48.844;9.156;2023-08-01T14:37:08;5.60;;;1.30;;
789;SDS011;378;48.844;9.156;2023-08-01T14:39:35;2.92;;;1.10;;
789;SDS011;378;48.844;9.156;2023-08-01T14:42:02;5.15;;;1.20;;
789;SDS011;378;48.844;9.156;2023-08-01T14:44:29;2.78;;;1.00;;
789;SDS011;378;48.844;9.156;2023-08-01T14:46:55;3.63;;;1.27;;
789;SDS011;378;48.844;9.156;2023-08-01T14:49:22;3.20;;;1.10;;
789;SDS011;378;48.844;9.156;2023-08-01T14:51:52;5.00;;;0.90;;
789;SDS011;378;48.844;9.156;2023-08-01T14:54:20;2.30;;;1.00;;
789;SDS011;378;48.844;9.156;2023-08-01T14:56:47;3.75;;;0.90;;
789;SDS011;378;48.844;9.156;2023-08-01T14:59:14;5.57;;;1.00;;
789;SDS011;378;48.844;9.156;2023-08-01T15:01:41;2.63;;;1.08;;
789;SDS011;378;48.844;9.156;2023-08-01T15:04:07;6.03;;;1.08;;
789;SDS011;378;48.844;9.156;2023-08-01T15:06:34;2.50;;;0.90;;
789;SDS011;378;48.844;9.156;2023-08-01T15:09:01;1.88;;;0.93;;
789;SDS011;378;48.844;9.156;2023-08-01T15:11:30;1.80;;;0.90;;
789;SDS011;378;48.844;9.156;2023-08-01T15:13:57;2.42;;;1.02;;
789;SDS011;378;48.844;9.156;2023-08-01T15:16:24;1.75;;;0.95;;
789;SDS011;378;48.844;9.156;2023-08-01T15:18:50;2.33;;;0.80;;
789;SDS011;378;48.844;9.156;2023-08-01T15:21:17;1.77;;;0.90;;
789;SDS011;378;48.844;9.156;2023-08-01T15:23:45;1.75;;;0.80;;
789;SDS011;378;48.844;9.156;2023-08-01T15:26:12;2.33;;;0.90;;
789;SDS011;378;48.844;9.156;2023-08-01T15:28:40;2.50;;;1.00;;
789;SDS011;378;48.844;9.156;2023-08-01T15:31:08;3.75;;;1.17;;
789;SDS011;378;48.844;9.156;2023-08-01T15:33:36;4.30;;;1.00;;
789;SDS011;378;48.844;9.156;2023-08-01T15:36:04;1.55;;;0.85;;
789;SDS011;378;48.844;9.156;2023-08-01T15:38:32;2.80;;;1.17;;
789;SDS011;378;48.844;9.156;2023-08-01T15:41:01;1.42;;;1.05;;
789;SDS011;378;48.844;9.156;2023-08-01T15:43:33;3.47;;;1.13;;
789;SDS011;378;48.844;9.156;2023-08-01T15:46:02;5.65;;;1.20;;
789;SDS011;378;48.844;9.156;2023-08-01T15:48:29;3.03;;;1.00;;
789;SDS011;378;48.844;9.156;2023-08-01T15:50:57;1.70;;;0.90;;
789;SDS011;378;48.844;9.156;2023-08-01T15:53:24;2.65;;;1.17;;
789;SDS011;378;48.844;9.156;2023-08-01T15:55:53;4.15;;;1.10;;
789;SDS011;378;48.844;9.156;2023-08-01T15:58:21;2.85;;;1.10;;
789;SDS011;378;48.844;9.156;2023-08-01T16:00:48;1.88;;;0.98;;
789;SDS011;378;48.844;9.156;2023-08-01T16:03:16;1.88;;;1.02;;
789;SDS011;378;48.844;9.156;2023-08-01T16:05:43;2.53;;;1.20;;
789;SDS011;378;48.844;9.156;2023-08-01T16:08:10;5.32;;;1.30;;